Crystal Bay, Minnesota
Current Conditions -  °F | °C
As of 6:30 PM on Wednesday 26 Nov 2014 (Local Time) from KFCM Reporting Station
Overcast Overcast  
Wind Chill: 12°   Ceiling: 7000
Heat Index: 22°   Visibility: 10mi
Dew Point: 14°   Wind: 9mph
Humidity: 72%   Direction: 330°NNW
Pressure: 30.28"   Gusts: NA
Location:  44.95°N, 93.58°W
Report Text: KFCM 270030Z 33008KT 10SM SCT026 BKN070 OVC090 M06/M10 A3028 RMK AO2 T10561100
Loading
Personal Weather Stations






























Interactive Weather Map New forecast layout! Learn more

10-Day Weather Forecast

Advertisements
Track Severe Weather on mobile